Terminal Aerodrome Forecast
Issued by NWS Sioux Falls, SD

Home | Current Version | Previous Version | Text Only | Print | Product List | Glossary Off
Versions: 1 2 3 4 5 6 7 8 9 10 11 12 13 14 15 16 17 18

000
FTUS43 KFSD 250535
TAFHON
TAF
KHON 250535Z 2506/2606 26006KT P6SM SCT070 SCT200
     FM250900 20004KT 6SM BR BKN050
     FM252200 15010KT P6SM BKN015
     FM260000 16005KT 4SM -SN OVC008
     FM260400 29007KT P6SM -SN OVC012=

USA.gov is the U.S. government's official web portal to all federal, state and local government web resources and services.